Time;durP1;ratioP1;P1;durP2;ratioP2;P2;SDS_P1;SDS_P2;PMS_P1;PMS_P2;Temp;Humidity;BMP_temperature;BMP_pressure;BME280_temperature;BME280_humidity;BME280_pressure;Samples;Min_cycle;Max_cycle;Signal;HPM_P1;HPM_P2
2021/01/15 00:01:38;;;;;;;16.60;6.82;;;1.70;99.90;;;;;;5021942;28;20033;-76
2021/01/15 00:04:04;;;;;;;10.25;5.50;;;1.90;99.90;;;;;;5026600;28;20056;-75
2021/01/15 00:06:31;;;;;;;11.32;5.47;;;2.00;99.90;;;;;;5024187;28;20437;-75
2021/01/15 00:08:57;;;;;;;15.50;5.65;;;2.00;99.90;;;;;;5024570;28;20029;-76
2021/01/15 00:11:26;;;;;;;15.73;7.95;;;2.00;99.90;;;;;;5023980;28;20041;-76
2021/01/15 00:13:53;;;;;;;14.40;7.20;;;2.10;99.90;;;;;;5016958;28;20060;-77
2021/01/15 00:16:28;;;;;;;14.57;6.15;;;2.20;99.90;;;;;;5016155;28;20103;-75
2021/01/15 00:18:56;;;;;;;10.05;5.65;;;2.00;99.90;;;;;;5022028;28;20515;-77
2021/01/15 00:21:27;;;;;;;12.63;6.32;;;1.90;99.90;;;;;;5020078;28;20328;-75
2021/01/15 00:23:55;;;;;;;10.63;6.22;;;2.00;99.90;;;;;;5025458;28;20102;-75
2021/01/15 00:26:25;;;;;;;7.70;5.47;;;2.10;99.90;;;;;;5024456;28;20038;-75
2021/01/15 00:28:52;;;;;;;14.07;7.28;;;2.00;99.90;;;;;;5025022;28;20041;-74
2021/01/15 00:31:17;;;;;;;10.48;5.47;;;1.90;99.90;;;;;;5024876;28;20479;-76
2021/01/15 00:33:43;;;;;;;13.50;6.25;;;1.90;99.90;;;;;;5017057;28;20316;-74
2021/01/15 00:36:09;;;;;;;11.60;5.80;;;1.90;99.90;;;;;;5007359;28;20128;-75
2021/01/15 00:38:35;;;;;;;10.07;4.90;;;1.80;99.90;;;;;;5034979;28;20037;-74
2021/01/15 00:41:06;;;;;;;9.52;5.50;;;1.90;99.90;;;;;;5019510;28;20099;-74
2021/01/15 00:43:33;;;;;;;11.38;5.97;;;1.80;99.90;;;;;;5023539;28;20034;-76
2021/01/15 00:45:59;;;;;;;10.18;5.80;;;1.90;99.90;;;;;;5018426;28;20045;-76
2021/01/15 00:48:25;;;;;;;15.10;5.72;;;1.90;99.90;;;;;;5026475;28;20025;-74
2021/01/15 00:50:51;;;;;;;11.57;6.40;;;1.80;99.90;;;;;;5016582;28;20441;-75
2021/01/15 00:53:16;;;;;;;11.85;6.32;;;1.80;99.90;;;;;;5020863;28;20514;-74
2021/01/15 00:55:42;;;;;;;10.00;6.03;;;1.80;99.90;;;;;;5021710;28;20629;-74
2021/01/15 00:58:14;;;;;;;13.32;6.25;;;1.80;99.90;;;;;;5028620;28;20124;-74
2021/01/15 01:00:40;;;;;;;10.15;5.35;;;1.80;99.90;;;;;;5013175;28;20045;-75
2021/01/15 01:03:07;;;;;;;8.30;3.92;;;1.70;99.90;;;;;;5018348;28;20518;-75
2021/01/15 01:05:33;;;;;;;10.90;5.65;;;1.70;99.90;;;;;;5025456;28;20045;-74
2021/01/15 01:07:59;;;;;;;11.10;5.15;;;1.60;99.90;;;;;;5023860;28;20080;-75
2021/01/15 01:10:25;;;;;;;8.85;5.47;;;1.70;99.90;;;;;;5024586;28;20152;-74
2021/01/15 01:12:50;;;;;;;8.57;5.25;;;1.60;99.90;;;;;;5026981;28;20021;-74
2021/01/15 01:15:16;;;;;;;8.52;5.03;;;1.70;99.90;;;;;;5026031;28;20837;-75
2021/01/15 01:17:42;;;;;;;11.25;4.07;;;1.60;99.90;;;;;;5039781;28;20534;-75
2021/01/15 01:20:10;;;;;;;10.07;5.32;;;1.70;99.90;;;;;;5026692;28;20046;-75
2021/01/15 01:22:36;;;;;;;9.32;4.93;;;1.60;99.90;;;;;;5017258;28;20042;-75
2021/01/15 01:25:03;;;;;;;9.77;5.18;;;1.60;99.90;;;;;;5026031;28;20461;-76
2021/01/15 01:27:29;;;;;;;9.55;4.90;;;1.50;99.90;;;;;;5027099;28;20410;-75
2021/01/15 01:29:55;;;;;;;8.45;4.65;;;1.50;99.90;;;;;;5020214;28;20048;-74
2021/01/15 01:32:21;;;;;;;8.68;5.25;;;1.50;99.90;;;;;;5028980;28;20136;-74
2021/01/15 01:34:46;;;;;;;7.85;4.43;;;1.50;99.90;;;;;;5023103;28;20287;-75
2021/01/15 01:37:12;;;;;;;8.00;4.40;;;1.50;99.90;;;;;;5022141;28;20065;-75
2021/01/15 01:39:37;;;;;;;10.52;4.70;;;1.60;99.90;;;;;;5026242;28;20033;-75
2021/01/15 01:42:03;;;;;;;6.50;3.92;;;1.60;99.90;;;;;;5021777;28;20091;-75
2021/01/15 01:44:29;;;;;;;7.43;4.00;;;1.60;99.90;;;;;;5006198;28;20124;-74
2021/01/15 01:46:55;;;;;;;9.32;3.78;;;1.60;99.90;;;;;;5022611;28;20495;-76
2021/01/15 01:49:21;;;;;;;7.95;3.97;;;1.50;99.90;;;;;;5017335;28;20072;-75
2021/01/15 01:51:51;;;;;;;7.85;3.70;;;1.50;99.90;;;;;;5036650;28;20041;-75
2021/01/15 01:54:18;;;;;;;7.22;3.55;;;1.50;99.90;;;;;;5016302;28;20045;-75
2021/01/15 01:56:43;;;;;;;7.60;4.43;;;1.50;99.90;;;;;;5019014;28;20056;-75
2021/01/15 01:59:13;;;;;;;5.75;3.50;;;1.50;99.90;;;;;;5026893;28;20558;-74
2021/01/15 02:01:39;;;;;;;7.18;3.78;;;1.50;99.90;;;;;;5018534;28;20041;-75
2021/01/15 02:04:05;;;;;;;8.45;3.95;;;1.40;99.90;;;;;;5030232;28;20052;-75
2021/01/15 02:06:35;;;;;;;5.45;2.53;;;1.40;99.90;;;;;;5023373;28;20034;-75
2021/01/15 02:09:05;;;;;;;5.20;2.80;;;1.50;99.90;;;;;;5025367;28;20049;-75
2021/01/15 02:11:41;;;;;;;8.10;3.20;;;1.40;99.90;;;;;;5022802;28;20415;-74
2021/01/15 02:14:20;;;;;;;6.80;3.17;;;1.50;99.90;;;;;;5023298;28;20033;-75
2021/01/15 02:16:52;;;;;;;4.60;2.80;;;1.50;99.90;;;;;;5021110;28;20025;-75
2021/01/15 02:19:23;;;;;;;5.72;3.08;;;1.40;99.90;;;;;;5021043;28;20037;-74
2021/01/15 02:22:26;;;;;;;6.40;3.85;;;1.40;99.90;;;;;;5025461;28;20048;-75
2021/01/15 02:25:28;;;;;;;5.65;3.50;;;1.50;99.90;;;;;;5031803;28;20128;-75
2021/01/15 02:28:36;;;;;;;5.03;2.78;;;1.50;99.90;;;;;;5028216;28;20091;-74
2021/01/15 02:31:34;;;;;;;6.85;2.80;;;1.50;99.90;;;;;;5007588;28;20514;-76
2021/01/15 02:34:37;;;;;;;5.65;3.20;;;1.60;99.90;;;;;;5043764;28;20037;-74
2021/01/15 02:37:20;;;;;;;8.48;3.30;;;1.50;99.90;;;;;;5039701;28;20265;-75
2021/01/15 02:40:10;;;;;;;5.68;3.05;;;1.40;99.90;;;;;;5028046;28;20136;-76
2021/01/15 02:42:37;;;;;;;6.68;3.30;;;1.40;99.90;;;;;;5016715;28;20038;-76
2021/01/15 02:45:13;;;;;;;7.63;3.92;;;1.40;99.90;;;;;;5029649;28;20050;-76
2021/01/15 02:47:48;;;;;;;5.28;3.03;;;1.40;99.90;;;;;;5024047;28;20046;-74
2021/01/15 02:50:16;;;;;;;6.20;2.72;;;1.30;99.90;;;;;;5022553;28;20057;-76
2021/01/15 02:52:42;;;;;;;5.18;3.05;;;1.30;99.90;;;;;;5024817;28;20022;-75
2021/01/15 02:55:10;;;;;;;10.48;3.15;;;1.30;99.90;;;;;;5023670;28;20060;-75
2021/01/15 02:57:36;;;;;;;7.15;3.45;;;1.30;99.90;;;;;;5024345;28;20037;-76
2021/01/15 03:00:04;;;;;;;4.95;3.00;;;1.40;99.90;;;;;;5025299;28;20397;-74
2021/01/15 03:02:53;;;;;;;6.78;3.30;;;1.40;99.90;;;;;;5022304;28;20041;-76
2021/01/15 03:05:21;;;;;;;4.35;2.60;;;1.40;99.90;;;;;;5026616;28;20084;-74
2021/01/15 03:07:50;;;;;;;5.18;3.03;;;1.30;99.90;;;;;;5027034;28;20485;-75
2021/01/15 03:10:21;;;;;;;6.65;2.90;;;1.20;99.90;;;;;;5025259;28;20109;-76
2021/01/15 03:12:49;;;;;;;5.32;3.00;;;1.30;99.90;;;;;;5017584;28;20099;-75
2021/01/15 03:15:17;;;;;;;4.75;3.00;;;1.20;99.90;;;;;;5021811;28;20022;-75
2021/01/15 03:17:46;;;;;;;4.82;3.20;;;1.20;99.90;;;;;;5030159;28;20535;-75
2021/01/15 03:20:13;;;;;;;6.65;3.85;;;1.20;99.90;;;;;;5023584;28;20082;-76
2021/01/15 03:22:39;;;;;;;6.05;3.08;;;1.10;99.90;;;;;;5024734;28;20026;-75
2021/01/15 03:25:06;;;;;;;6.32;3.45;;;0.00;99.90;;;;;;5025754;28;20045;-75
2021/01/15 03:27:44;;;;;;;6.40;3.30;;;1.10;99.90;;;;;;5029017;28;20037;-75
2021/01/15 03:30:16;;;;;;;6.75;3.75;;;1.10;99.90;;;;;;5031064;28;20029;-75
2021/01/15 03:32:42;;;;;;;6.90;3.60;;;1.00;99.90;;;;;;5026286;28;20034;-75
2021/01/15 03:35:09;;;;;;;5.00;3.20;;;1.10;99.90;;;;;;5022633;28;20492;-76
2021/01/15 03:37:35;;;;;;;5.88;3.40;;;1.20;99.90;;;;;;5031604;28;20033;-76
2021/01/15 03:40:02;;;;;;;5.20;3.25;;;1.20;99.90;;;;;;5029122;28;20029;-75
2021/01/15 03:42:28;;;;;;;4.13;2.80;;;1.20;99.90;;;;;;5021548;28;20111;-75
2021/01/15 03:44:53;;;;;;;5.75;2.97;;;1.20;99.90;;;;;;5028195;28;20042;-76
2021/01/15 03:47:19;;;;;;;5.38;3.30;;;1.20;99.90;;;;;;5023660;28;20029;-77
2021/01/15 03:49:44;;;;;;;6.72;3.33;;;1.10;99.90;;;;;;5025492;28;20569;-76
2021/01/15 03:52:11;;;;;;;4.90;3.15;;;1.00;99.90;;;;;;5022217;28;20415;-75
2021/01/15 03:54:37;;;;;;;5.93;3.10;;;1.00;99.90;;;;;;5030746;28;20025;-76
2021/01/15 03:57:04;;;;;;;4.03;2.72;;;1.10;99.90;;;;;;5023857;28;20092;-75
2021/01/15 03:59:30;;;;;;;6.38;3.30;;;1.10;99.80;;;;;;5025102;28;20037;-76
2021/01/15 04:01:56;;;;;;;5.70;3.08;;;1.00;99.90;;;;;;5026426;28;20057;-77
2021/01/15 04:04:21;;;;;;;6.63;3.20;;;0.90;99.90;;;;;;5029953;28;20034;-75
2021/01/15 04:06:47;;;;;;;6.25;3.10;;;0.80;99.90;;;;;;5022238;28;20438;-73
2021/01/15 04:09:12;;;;;;;7.13;3.42;;;0.90;99.80;;;;;;5033090;28;20436;-74
2021/01/15 04:11:38;;;;;;;5.75;3.67;;;0.80;99.90;;;;;;5023322;28;20091;-74
2021/01/15 04:14:04;;;;;;;7.13;3.25;;;0.80;99.90;;;;;;5031594;28;20029;-75
2021/01/15 04:16:30;;;;;;;5.55;2.92;;;0.80;99.90;;;;;;5021751;28;20031;-76
2021/01/15 04:18:55;;;;;;;5.97;3.70;;;0.90;99.90;;;;;;5021707;28;20041;-75
2021/01/15 04:21:21;;;;;;;6.13;3.45;;;0.90;99.90;;;;;;5024102;28;20236;-76
2021/01/15 04:23:47;;;;;;;5.75;3.67;;;0.80;99.50;;;;;;5026407;28;20033;-75
2021/01/15 04:26:19;;;;;;;8.63;3.53;;;0.80;99.80;;;;;;5010738;28;20396;-75
2021/01/15 04:28:45;;;;;;;5.20;3.47;;;0.80;99.90;;;;;;5041460;28;20121;-76
2021/01/15 04:31:15;;;;;;;6.10;3.40;;;0.90;99.20;;;;;;5030224;28;20116;-76
2021/01/15 04:33:41;;;;;;;5.80;3.13;;;0.90;99.40;;;;;;5023636;28;20032;-75
2021/01/15 04:36:11;;;;;;;7.57;3.83;;;0.90;99.00;;;;;;4990621;28;20407;-75
2021/01/15 04:38:37;;;;;;;9.98;3.90;;;0.80;99.30;;;;;;5023413;28;20514;-76
2021/01/15 04:41:03;;;;;;;7.80;4.05;;;0.70;99.90;;;;;;5025705;28;20073;-74
2021/01/15 04:43:30;;;;;;;8.60;3.90;;;0.60;99.90;;;;;;5020392;28;20068;-74
2021/01/15 04:45:57;;;;;;;6.30;3.55;;;0.60;99.90;;;;;;5026087;28;20388;-75
2021/01/15 04:48:23;;;;;;;8.88;3.78;;;0.70;99.60;;;;;;5029268;28;20086;-74
2021/01/15 04:50:49;;;;;;;6.90;3.92;;;;;;;;;;5025328;28;20048;-76
2021/01/15 04:53:20;;;;;;;8.25;3.72;;;0.80;99.20;;;;;;5027106;28;20029;-76
2021/01/15 04:55:46;;;;;;;6.63;3.58;;;0.80;99.50;;;;;;5043074;28;20477;-76
2021/01/15 04:58:12;;;;;;;9.63;3.45;;;0.80;99.80;;;;;;5027089;28;20116;-75
2021/01/15 05:00:41;;;;;;;8.63;4.43;;;0.80;99.00;;;;;;5018796;28;20645;-76
2021/01/15 05:03:08;;;;;;;6.40;3.88;;;0.70;99.50;;;;;;5017081;28;20091;-75
2021/01/15 05:05:42;;;;;;;7.45;3.63;;;0.70;99.40;;;;;;5024708;28;20046;-75
2021/01/15 05:08:10;;;;;;;6.95;3.83;;;0.60;99.60;;;;;;5024008;28;20624;-75
2021/01/15 05:10:44;;;;;;;8.30;4.00;;;0.70;99.30;;;;;;5017596;28;20116;-76
2021/01/15 05:13:12;;;;;;;7.55;3.25;;;0.60;99.80;;;;;;5014687;28;20046;-76
2021/01/15 05:15:40;;;;;;;6.72;3.17;;;0.70;99.30;;;;;;5026028;28;20033;-74
2021/01/15 05:18:07;;;;;;;9.70;3.88;;;0.70;99.60;;;;;;5031501;28;20057;-76
2021/01/15 05:20:33;;;;;;;7.63;3.30;;;0.70;99.30;;;;;;5024397;28;20511;-75
2021/01/15 05:23:03;;;;;;;7.38;3.25;;;0.70;99.60;;;;;;5029523;28;20037;-76
2021/01/15 05:25:30;;;;;;;5.70;3.20;;;0.70;99.00;;;;;;5020589;28;20044;-74
2021/01/15 05:27:55;;;;;;;5.05;3.28;;;0.70;99.30;;;;;;5023227;28;20045;-75
2021/01/15 05:30:25;;;;;;;4.82;3.03;;;0.80;98.70;;;;;;5021321;28;20041;-76
2021/01/15 05:32:56;;;;;;;6.57;2.92;;;0.90;98.90;;;;;;5011273;28;20133;-75
2021/01/15 05:35:37;;;;;;;5.82;3.10;;;0.80;98.80;;;;;;5020179;28;20407;-75
2021/01/15 05:38:03;;;;;;;6.13;3.30;;;0.80;99.00;;;;;;5022494;28;20072;-75
2021/01/15 05:40:40;;;;;;;6.78;3.30;;;0.80;99.00;;;;;;5027649;28;20053;-74
2021/01/15 05:43:06;;;;;;;6.70;3.20;;;0.70;99.40;;;;;;5027765;28;20042;-75
2021/01/15 05:45:32;;;;;;;5.38;3.35;;;0.60;99.20;;;;;;5023731;28;20045;-74
2021/01/15 05:47:58;;;;;;;5.70;3.40;;;0.70;99.30;;;;;;5027735;28;20511;-75
2021/01/15 05:50:37;;;;;;;5.28;3.30;;;0.70;98.70;;;;;;5024128;28;20045;-75
2021/01/15 05:53:03;;;;;;;4.28;2.92;;;0.70;98.40;;;;;;5027855;28;20418;-74
2021/01/15 05:55:29;;;;;;;8.57;3.83;;;0.60;98.90;;;;;;5006607;28;20045;-75
2021/01/15 05:57:54;;;;;;;5.22;3.20;;;0.70;99.10;;;;;;5021651;28;20046;-76
2021/01/15 06:00:28;;;;;;;6.53;3.67;;;0.60;99.00;;;;;;5026427;28;20087;-76
2021/01/15 06:02:57;;;;;;;4.40;3.05;;;0.70;99.00;;;;;;5026061;28;20036;-77
2021/01/15 06:05:24;;;;;;;8.23;3.40;;;0.60;99.00;;;;;;5008170;28;20037;-76
2021/01/15 06:07:54;;;;;;;8.43;3.95;;;0.60;99.20;;;;;;5028207;28;20507;-76
2021/01/15 06:10:19;;;;;;;5.53;3.70;;;0.50;99.60;;;;;;5029203;28;20032;-75
2021/01/15 06:12:45;;;;;;;9.48;3.50;;;0.50;99.70;;;;;;5034197;28;20661;-75
2021/01/15 06:15:11;;;;;;;5.25;3.20;;;0.40;99.90;;;;;;5032443;28;20029;-74
2021/01/15 06:17:40;;;;;;;6.85;3.70;;;0.30;99.90;;;;;;5027465;28;20042;-74
2021/01/15 06:20:07;;;;;;;7.82;3.35;;;0.30;99.90;;;;;;5026236;28;20041;-74
2021/01/15 06:22:43;;;;;;;6.07;3.45;;;0.40;99.90;;;;;;5027299;28;20021;-75
2021/01/15 06:25:28;;;;;;;4.85;3.35;;;0.40;99.70;;;;;;5023834;28;20048;-75
2021/01/15 06:27:56;;;;;;;7.57;3.20;;;0.50;99.50;;;;;;5021338;28;20068;-75
2021/01/15 06:30:32;;;;;;;7.18;3.50;;;0.50;99.50;;;;;;5029972;28;20033;-76
2021/01/15 06:33:15;;;;;;;7.60;3.50;;;0.50;99.60;;;;;;5025229;28;20122;-75
2021/01/15 06:35:43;;;;;;;6.90;4.10;;;0.30;99.70;;;;;;5027779;28;20037;-74
2021/01/15 06:38:19;;;;;;;6.80;3.70;;;0.30;99.90;;;;;;5026554;28;20036;-75
2021/01/15 06:40:49;;;;;;;5.65;3.30;;;0.40;99.70;;;;;;5018157;28;20045;-77
2021/01/15 06:43:34;;;;;;;6.68;3.33;;;0.30;99.70;;;;;;5036948;28;20029;-76
2021/01/15 06:46:04;;;;;;;6.85;3.40;;;0.40;99.40;;;;;;5025731;28;20072;-75
2021/01/15 06:48:36;;;;;;;6.55;3.17;;;0.40;99.60;;;;;;5025249;28;20029;-75
2021/01/15 06:51:02;;;;;;;7.45;3.60;;;0.40;99.60;;;;;;5026410;28;20037;-75
2021/01/15 06:53:30;;;;;;;6.60;3.42;;;0.50;99.20;;;;;;5028211;28;20033;-75
2021/01/15 06:55:57;;;;;;;6.15;3.88;;;0.40;99.40;;;;;;5019792;28;20037;-74
2021/01/15 06:58:43;;;;;;;5.70;3.80;;;0.40;99.50;;;;;;5017234;28;20404;-75
2021/01/15 07:01:22;;;;;;;7.30;4.35;;;0.40;99.50;;;;;;5018909;28;20041;-75
2021/01/15 07:04:12;;;;;;;7.30;3.65;;;0.30;99.50;;;;;;5031480;28;20114;-75
2021/01/15 07:06:38;;;;;;;7.30;3.80;;;0.40;99.10;;;;;;5001536;28;20033;-77
2021/01/15 07:09:08;;;;;;;5.80;3.58;;;0.30;99.60;;;;;;4994370;28;20156;-75
2021/01/15 07:11:42;;;;;;;6.72;3.42;;;0.30;99.90;;;;;;5014621;28;20029;-76
2021/01/15 07:14:07;;;;;;;6.78;3.38;;;0.20;99.70;;;;;;5026729;28;20030;-75
2021/01/15 07:16:37;;;;;;;6.18;3.55;;;0.40;99.10;;;;;;5018729;28;20112;-75
2021/01/15 07:19:06;;;;;;;6.07;3.38;;;0.30;99.20;;;;;;5026232;28;20088;-76
2021/01/15 07:21:36;;;;;;;6.60;3.40;;;0.40;99.40;;;;;;5013802;28;20442;-76
2021/01/15 07:24:09;;;;;;;6.47;3.92;;;0.20;99.80;;;;;;5015126;28;20306;-75
2021/01/15 07:26:40;;;;;;;7.22;3.60;;;0.20;99.70;;;;;;5005859;28;20037;-76
2021/01/15 07:29:15;;;;;;;7.22;3.55;;;0.20;99.90;;;;;;5010255;28;20018;-75
2021/01/15 07:31:46;;;;;;;9.57;3.45;;;0.20;99.70;;;;;;5020978;28;20040;-76
2021/01/15 07:34:16;;;;;;;8.35;3.60;;;0.20;99.70;;;;;;5028712;28;20620;-76
2021/01/15 07:36:42;;;;;;;7.00;3.38;;;0.20;99.90;;;;;;5012421;28;20033;-76
2021/01/15 07:39:13;;;;;;;6.15;3.33;;;0.30;99.40;;;;;;5026365;28;20039;-74
2021/01/15 07:41:53;;;;;;;6.00;3.80;;;0.40;99.30;;;;;;5020615;28;20384;-75
2021/01/15 07:44:22;;;;;;;6.95;3.63;;;0.30;99.50;;;;;;5021868;28;20213;-76
2021/01/15 07:46:59;;;;;;;6.70;3.47;;;0.30;99.50;;;;;;5021203;28;20061;-76
2021/01/15 07:49:25;;;;;;;6.22;3.58;;;0.40;99.30;;;;;;5031818;28;20506;-75
2021/01/15 07:52:23;;;;;;;7.05;4.07;;;0.30;99.40;;;;;;5023824;28;20041;-76
2021/01/15 07:54:51;;;;;;;9.00;4.20;;;0.30;99.00;;;;;;4989275;28;20407;-76
2021/01/15 07:57:19;;;;;;;7.35;3.63;;;0.30;99.20;;;;;;5017970;28;20132;-76
2021/01/15 07:59:46;;;;;;;5.35;3.40;;;0.20;99.80;;;;;;5009816;28;20045;-75
2021/01/15 08:02:15;;;;;;;7.55;3.90;;;0.20;99.90;;;;;;5017773;28;20049;-75
2021/01/15 08:04:41;;;;;;;6.78;3.70;;;0.20;99.90;;;;;;5019869;28;20041;-75
2021/01/15 08:07:10;;;;;;;7.68;4.03;;;0.20;99.90;;;;;;5000556;28;20083;-75
2021/01/15 08:09:42;;;;;;;7.03;3.75;;;0.20;99.90;;;;;;5015648;28;20044;-75
2021/01/15 08:12:08;;;;;;;5.70;3.53;;;0.30;99.70;;;;;;5021421;28;20501;-75
2021/01/15 08:14:34;;;;;;;8.02;3.80;;;0.40;99.80;;;;;;5023515;28;20033;-74
2021/01/15 08:17:00;;;;;;;6.40;3.85;;;0.50;98.80;;;;;;5019437;28;20037;-76
2021/01/15 08:19:27;;;;;;;10.07;4.75;;;0.60;98.50;;;;;;5012390;28;20083;-75
2021/01/15 08:21:54;;;;;;;6.93;3.97;;;0.80;98.30;;;;;;5016531;28;20038;-75
2021/01/15 08:24:22;;;;;;;9.50;3.72;;;0.80;98.20;;;;;;5016687;28;20066;-75
2021/01/15 08:26:55;;;;;;;7.93;4.00;;;0.80;98.20;;;;;;4999966;28;20434;-76
2021/01/15 08:29:22;;;;;;;6.78;3.90;;;0.70;98.50;;;;;;5018303;28;20037;-76
2021/01/15 08:31:48;;;;;;;8.07;4.85;;;0.70;98.60;;;;;;5014847;28;20038;-76
2021/01/15 08:34:16;;;;;;;7.32;4.20;;;0.70;98.70;;;;;;5020099;28;20141;-76
2021/01/15 08:36:43;;;;;;;9.68;4.88;;;0.70;99.10;;;;;;5020040;28;20479;-75
2021/01/15 08:39:09;;;;;;;14.45;5.07;;;0.60;99.10;;;;;;5017004;28;20037;-75
2021/01/15 08:41:36;;;;;;;9.23;4.28;;;0.70;98.90;;;;;;5012579;28;20040;-74
2021/01/15 08:44:02;;;;;;;8.65;5.28;;;0.70;98.80;;;;;;5012611;28;20469;-75
2021/01/15 08:46:31;;;;;;;9.02;4.63;;;0.80;98.90;;;;;;5014418;28;20270;-77
2021/01/15 08:48:57;;;;;;;12.43;4.15;;;0.80;99.00;;;;;;5028881;28;20633;-76
2021/01/15 08:51:25;;;;;;;8.45;4.32;;;0.90;98.40;;;;;;5019408;28;20049;-76
2021/01/15 08:54:06;;;;;;;6.72;3.53;;;0.90;98.40;;;;;;5005362;28;20037;-75
2021/01/15 08:56:41;;;;;;;8.60;4.45;;;1.00;98.10;;;;;;5008819;28;20104;-77
2021/01/15 08:59:12;;;;;;;6.28;3.97;;;1.00;98.10;;;;;;5009695;28;20069;-76
2021/01/15 09:01:40;;;;;;;9.30;5.00;;;1.00;98.00;;;;;;5009478;28;20072;-76
2021/01/15 09:04:11;;;;;;;7.03;4.28;;;1.00;97.90;;;;;;5021121;28;20061;-78
2021/01/15 09:06:38;;;;;;;8.00;4.10;;;0.90;98.40;;;;;;5013753;28;20040;-75
2021/01/15 09:09:11;;;;;;;8.38;4.45;;;0.90;98.30;;;;;;4999300;28;20045;-75
2021/01/15 09:11:40;;;;;;;8.70;4.40;;;0.90;98.60;;;;;;5009842;28;20594;-77
2021/01/15 09:14:12;;;;;;;8.13;3.92;;;0.90;98.10;;;;;;5010675;28;20421;-75
2021/01/15 09:16:39;;;;;;;9.38;4.03;;;0.90;98.30;;;;;;5015259;28;20393;-75
2021/01/15 09:19:08;;;;;;;11.18;4.40;;;0.90;98.40;;;;;;5015561;28;20502;-75
2021/01/15 09:21:45;;;;;;;7.93;4.25;;;0.90;98.20;;;;;;5011360;28;20041;-76
2021/01/15 09:24:10;;;;;;;8.80;4.20;;;0.90;98.30;;;;;;5019657;28;20407;-74
2021/01/15 09:26:36;;;;;;;8.57;4.63;;;1.00;98.00;;;;;;5016663;28;20749;-75
2021/01/15 09:29:02;;;;;;;7.50;4.50;;;0.90;98.40;;;;;;5015132;28;20075;-75
2021/01/15 09:31:28;;;;;;;9.70;5.18;;;0.80;98.80;;;;;;5016526;28;20127;-75
2021/01/15 09:33:53;;;;;;;12.98;5.70;;;0.80;99.30;;;;;;4993947;28;20057;-75
2021/01/15 09:36:26;;;;;;;12.23;4.97;;;0.70;99.60;;;;;;5015297;28;20046;-75
2021/01/15 09:38:56;;;;;;;8.50;4.60;;;0.70;99.80;;;;;;5016276;28;20049;-76
2021/01/15 09:41:22;;;;;;;11.52;5.93;;;0.70;99.70;;;;;;5011638;28;20514;-76
2021/01/15 09:43:53;;;;;;;10.38;6.05;;;0.70;99.90;;;;;;5010247;28;20037;-74
2021/01/15 09:46:24;;;;;;;8.77;4.70;;;0.70;99.90;;;;;;5012177;28;20562;-75
2021/01/15 09:48:51;;;;;;;9.77;4.80;;;0.70;99.90;;;;;;5015753;28;20021;-75
2021/01/15 09:51:20;;;;;;;8.73;4.80;;;0.80;99.70;;;;;;5014775;28;20037;-75
2021/01/15 09:53:46;;;;;;;9.32;4.90;;;0.80;99.20;;;;;;5016443;28;20128;-76
2021/01/15 09:56:21;;;;;;;12.45;5.93;;;0.80;99.50;;;;;;5010261;28;20372;-74
2021/01/15 09:58:46;;;;;;;11.15;4.72;;;0.80;99.40;;;;;;5007323;28;20049;-77
2021/01/15 10:01:13;;;;;;;10.15;5.00;;;0.90;99.10;;;;;;5008118;28;20054;-73
2021/01/15 10:03:38;;;;;;;9.02;5.30;;;0.90;99.20;;;;;;5013618;28;20064;-74
2021/01/15 10:06:04;;;;;;;11.80;5.88;;;0.90;99.60;;;;;;5026752;28;20049;-74
2021/01/15 10:08:30;;;;;;;9.43;5.22;;;1.00;99.80;;;;;;5031189;28;20041;-76
2021/01/15 10:10:56;;;;;;;8.77;4.97;;;1.00;99.50;;;;;;5027840;28;20038;-76
2021/01/15 10:13:22;;;;;;;6.88;4.00;;;1.00;99.80;;;;;;5027073;28;20044;-75
2021/01/15 10:15:48;;;;;;;9.00;4.63;;;1.20;99.70;;;;;;5030033;28;20496;-76
2021/01/15 10:18:14;;;;;;;10.30;4.88;;;1.20;99.10;;;;;;5022957;28;20061;-76
2021/01/15 10:20:44;;;;;;;8.10;4.68;;;1.30;98.60;;;;;;5027225;28;20037;-74
2021/01/15 10:23:10;;;;;;;9.15;4.35;;;1.40;98.50;;;;;;5024129;28;20048;-75
2021/01/15 10:25:36;;;;;;;11.82;5.25;;;1.40;99.30;;;;;;5030608;28;20038;-75
2021/01/15 10:28:03;;;;;;;9.40;5.03;;;1.40;99.20;;;;;;5024015;28;20034;-74
2021/01/15 10:30:30;;;;;;;8.07;4.60;;;1.50;98.60;;;;;;5027009;28;20041;-77
2021/01/15 10:32:56;;;;;;;13.20;5.03;;;1.40;98.50;;;;;;5019650;28;20034;-75
2021/01/15 10:35:22;;;;;;;9.57;5.18;;;1.40;98.90;;;;;;5023661;28;20187;-75
2021/01/15 10:37:47;;;;;;;9.13;5.53;;;1.40;99.40;;;;;;5009496;28;20069;-75
2021/01/15 10:40:13;;;;;;;8.90;5.30;;;1.40;99.30;;;;;;5023042;28;20045;-74
2021/01/15 10:42:39;;;;;;;11.68;5.15;;;1.50;99.20;;;;;;5023092;28;20064;-76
2021/01/15 10:45:07;;;;;;;8.65;4.60;;;1.50;99.30;;;;;;5024681;28;20029;-75
2021/01/15 10:47:32;;;;;;;8.45;5.00;;;1.60;98.80;;;;;;5021123;28;20029;-74
2021/01/15 10:49:58;;;;;;;10.55;4.47;;;1.70;98.50;;;;;;5020885;28;20040;-75
2021/01/15 10:52:24;;;;;;;8.93;5.10;;;1.70;98.70;;;;;;5016865;28;20049;-75
2021/01/15 10:54:50;;;;;;;9.73;5.25;;;1.80;98.20;;;;;;4987101;28;20511;-75
2021/01/15 10:57:16;;;;;;;9.88;5.68;;;1.80;98.30;;;;;;5022714;28;20048;-74
2021/01/15 10:59:42;;;;;;;8.38;4.88;;;1.90;98.10;;;;;;5020888;28;20038;-75
2021/01/15 11:02:07;;;;;;;9.40;5.82;;;1.90;98.20;;;;;;5017615;28;20034;-76
2021/01/15 11:04:33;;;;;;;10.00;6.00;;;1.80;98.70;;;;;;5000367;28;20049;-77
2021/01/15 11:07:00;;;;;;;10.93;6.45;;;1.90;98.50;;;;;;5023963;28;20238;-74
2021/01/15 11:09:26;;;;;;;10.18;5.43;;;1.90;98.70;;;;;;5021388;28;20022;-75
2021/01/15 11:11:52;;;;;;;8.85;5.22;;;2.00;98.50;;;;;;5023599;28;20108;-78
2021/01/15 11:14:19;;;;;;;10.65;6.13;;;2.00;98.00;;;;;;5025371;28;20041;-76
2021/01/15 11:16:45;;;;;;;9.98;5.38;;;2.30;97.40;;;;;;5010724;28;20033;-75
2021/01/15 11:19:12;;;;;;;7.80;4.82;;;2.40;96.40;;;;;;5022387;28;20033;-77
2021/01/15 11:21:38;;;;;;;8.27;5.22;;;2.40;96.60;;;;;;5023710;28;20038;-77
2021/01/15 11:24:04;;;;;;;9.57;5.68;;;2.30;97.40;;;;;;5015771;28;20043;-75
2021/01/15 11:26:31;;;;;;;8.77;5.18;;;2.30;96.80;;;;;;5015649;28;20550;-75
2021/01/15 11:28:59;;;;;;;10.18;5.50;;;2.20;97.20;;;;;;5022645;28;20539;-76
2021/01/15 11:31:26;;;;;;;9.60;5.28;;;2.30;97.20;;;;;;5020866;28;20013;-76
2021/01/15 11:33:52;;;;;;;9.75;5.40;;;2.50;96.40;;;;;;5017145;28;20549;-74
2021/01/15 11:36:18;;;;;;;8.98;5.32;;;2.50;96.20;;;;;;5018595;28;20034;-75
2021/01/15 11:38:44;;;;;;;9.30;5.35;;;2.50;96.30;;;;;;5010185;28;20512;-75
2021/01/15 11:41:12;;;;;;;7.57;4.13;;;2.40;96.70;;;;;;5023227;28;20033;-74
2021/01/15 11:43:40;;;;;;;11.38;5.32;;;2.60;95.50;;;;;;5013798;28;20034;-74
2021/01/15 11:46:07;;;;;;;10.18;5.40;;;2.60;95.90;;;;;;5015891;28;20519;-75
2021/01/15 11:48:33;;;;;;;10.98;6.30;;;2.60;96.60;;;;;;5018955;28;20487;-76
2021/01/15 11:50:59;;;;;;;9.32;5.25;;;2.70;95.50;;;;;;5021752;28;20554;-74
2021/01/15 11:53:28;;;;;;;9.07;4.75;;;2.70;95.60;;;;;;5016681;28;20080;-76
2021/01/15 11:55:54;;;;;;;9.70;5.22;;;2.80;95.00;;;;;;5023537;28;20430;-76
2021/01/15 11:58:24;;;;;;;9.98;5.60;;;2.80;94.50;;;;;;5019637;28;20045;-76
2021/01/15 12:00:50;;;;;;;8.25;4.82;;;2.80;95.30;;;;;;5015735;28;20029;-74
2021/01/15 12:03:16;;;;;;;9.60;5.00;;;2.80;95.10;;;;;;5018342;28;20041;-74
2021/01/15 12:05:44;;;;;;;11.73;5.30;;;2.80;94.60;;;;;;5017661;28;20038;-75
2021/01/15 12:08:09;;;;;;;7.78;4.72;;;2.80;95.20;;;;;;5015711;28;20115;-74
2021/01/15 12:10:35;;;;;;;9.70;5.55;;;2.80;94.40;;;;;;5021890;28;20072;-76
2021/01/15 12:13:02;;;;;;;10.98;5.03;;;2.80;94.60;;;;;;5018148;28;20033;-75
2021/01/15 12:15:27;;;;;;;13.85;5.82;;;2.80;94.60;;;;;;5011605;28;20044;-75
2021/01/15 12:17:53;;;;;;;7.45;4.65;;;2.90;94.30;;;;;;5020083;28;20073;-75
2021/01/15 12:20:19;;;;;;;7.28;4.03;;;2.80;94.90;;;;;;5016943;28;20064;-75
2021/01/15 12:22:47;;;;;;;8.38;3.90;;;2.90;93.90;;;;;;5014759;28;20491;-74
2021/01/15 12:25:13;;;;;;;6.38;3.60;;;3.10;91.90;;;;;;5021748;28;20411;-76
2021/01/15 12:27:39;;;;;;;9.63;4.00;;;3.10;91.50;;;;;;5009551;28;20033;-74
2021/01/15 12:30:05;;;;;;;7.22;3.42;;;3.20;91.00;;;;;;5020605;28;20033;-73
2021/01/15 12:32:31;;;;;;;6.90;3.85;;;3.20;91.60;;;;;;5019522;28;20040;-77
2021/01/15 12:34:56;;;;;;;7.40;3.85;;;3.20;90.60;;;;;;5018194;28;20038;-74
2021/01/15 12:37:26;;;;;;;6.63;3.60;;;3.10;91.20;;;;;;5006780;28;21211;-75
2021/01/15 12:39:52;;;;;;;8.80;4.15;;;3.20;91.60;;;;;;5030841;28;20526;-73
2021/01/15 12:42:18;;;;;;;7.93;3.97;;;3.20;91.70;;;;;;5018831;28;20037;-75
2021/01/15 12:44:44;;;;;;;6.75;3.67;;;3.10;91.80;;;;;;5014709;28;20034;-75
2021/01/15 12:47:09;;;;;;;6.57;3.92;;;3.10;92.50;;;;;;5020365;28;20030;-76
2021/01/15 12:49:35;;;;;;;8.60;4.43;;;3.20;92.40;;;;;;4995940;28;20045;-74
2021/01/15 12:52:01;;;;;;;6.20;3.90;;;3.20;92.70;;;;;;5012398;28;20630;-75
2021/01/15 12:54:27;;;;;;;6.82;3.83;;;3.20;92.70;;;;;;5002314;28;20038;-76
2021/01/15 12:56:53;;;;;;;9.70;4.60;;;3.20;92.60;;;;;;5025034;28;20037;-75
2021/01/15 12:59:19;;;;;;;7.25;3.75;;;3.20;93.30;;;;;;5022030;28;20608;-76
2021/01/15 13:01:44;;;;;;;5.10;2.78;;;3.20;93.10;;;;;;5019866;28;20447;-75
2021/01/15 13:04:10;;;;;;;6.97;4.22;;;3.30;92.30;;;;;;5024204;28;20059;-75